createdAt,value
2023-02-28T00:01:32.181Z,9.48
2023-02-28T00:03:59.606Z,10.68
2023-02-28T00:06:26.826Z,8.73
2023-02-28T00:08:53.975Z,8.80
2023-02-28T00:11:21.092Z,8.70
2023-02-28T00:13:48.770Z,7.60
2023-02-28T00:16:20.219Z,8.52
2023-02-28T00:18:48.603Z,9.52
2023-02-28T00:21:16.224Z,9.30
2023-02-28T00:23:43.374Z,8.65
2023-02-28T00:26:10.547Z,7.85
2023-02-28T00:28:37.639Z,8.48
2023-02-28T00:31:04.975Z,8.80
2023-02-28T00:33:32.199Z,8.68
2023-02-28T00:36:04.391Z,9.15
2023-02-28T00:38:32.264Z,6.97
2023-02-28T00:41:05.345Z,10.32
2023-02-28T00:43:33.416Z,7.88
2023-02-28T00:46:00.565Z,8.80
2023-02-28T00:48:27.759Z,8.32
2023-02-28T00:50:54.896Z,8.75
2023-02-28T00:53:23.063Z,7.85
2023-02-28T00:55:50.777Z,10.45
2023-02-28T00:58:18.014Z,8.63
2023-02-28T01:00:49.993Z,9.20
2023-02-28T01:03:21.606Z,9.35
2023-02-28T01:05:48.752Z,8.73
2023-02-28T01:08:16.294Z,10.52
2023-02-28T01:10:43.937Z,10.73
2023-02-28T01:13:11.374Z,8.40
2023-02-28T01:15:39.479Z,9.30
2023-02-28T01:18:06.747Z,8.68
2023-02-28T01:20:33.847Z,8.38
2023-02-28T01:23:00.922Z,7.85
2023-02-28T01:25:28.130Z,9.48
2023-02-28T01:27:55.276Z,10.25
2023-02-28T01:30:22.365Z,8.82
2023-02-28T01:32:49.510Z,7.95
2023-02-28T01:35:16.617Z,6.78
2023-02-28T01:37:43.692Z,8.25
2023-02-28T01:40:11.175Z,10.25
2023-02-28T01:42:38.325Z,9.68
2023-02-28T01:45:05.502Z,9.80
2023-02-28T01:47:38.264Z,8.25
2023-02-28T01:50:07.452Z,8.15
2023-02-28T01:52:34.806Z,7.57
2023-02-28T01:55:03.468Z,9.80
2023-02-28T01:57:34.282Z,8.75
2023-02-28T02:00:05.863Z,10.30
2023-02-28T02:02:33.038Z,8.48
2023-02-28T02:05:11.167Z,8.02
2023-02-28T02:07:39.732Z,9.13
2023-02-28T02:10:23.637Z,9.88
2023-02-28T02:13:09.866Z,7.55
2023-02-28T02:15:37.086Z,10.93
2023-02-28T02:18:11.502Z,8.43
2023-02-28T02:20:44.748Z,8.95
2023-02-28T02:23:20.850Z,12.73
2023-02-28T02:26:06.692Z,11.32
2023-02-28T02:29:01.429Z,11.07
2023-02-28T02:31:41.397Z,7.47
2023-02-28T02:34:19.449Z,10.10
2023-02-28T02:36:50.444Z,8.02
2023-02-28T02:39:23.944Z,10.70
2023-02-28T02:41:53.380Z,8.43
2023-02-28T02:44:23.590Z,7.68
2023-02-28T02:46:52.074Z,9.00
2023-02-28T02:49:23.436Z,7.75
2023-02-28T02:54:25.283Z,8.35
2023-02-28T02:56:52.954Z,8.85
2023-02-28T02:59:22.281Z,8.50
2023-02-28T03:01:58.246Z,8.85
2023-02-28T03:04:26.513Z,9.43
2023-02-28T03:06:56.834Z,8.88
2023-02-28T03:09:24.403Z,6.35
2023-02-28T03:11:52.777Z,9.18
2023-02-28T03:14:38.887Z,7.30
2023-02-28T03:17:15.241Z,9.45
2023-02-28T03:19:57.780Z,8.07
2023-02-28T03:22:24.857Z,7.10
2023-02-28T03:25:10.518Z,9.88
2023-02-28T03:27:41.456Z,8.77
2023-02-28T03:30:14.067Z,8.77
2023-02-28T03:33:00.032Z,8.18
2023-02-28T03:35:38.855Z,7.47
2023-02-28T03:38:10.164Z,7.18
2023-02-28T03:43:06.476Z,9.77
2023-02-28T03:45:35.562Z,7.63
2023-02-28T03:48:10.718Z,9.80
2023-02-28T03:50:39.870Z,8.38
2023-02-28T03:53:19.097Z,7.20
2023-02-28T03:55:55.780Z,8.77
2023-02-28T03:58:45.651Z,8.18
2023-02-28T04:01:22.743Z,8.63
2023-02-28T04:03:51.436Z,9.60
2023-02-28T04:06:20.295Z,11.40
2023-02-28T04:08:47.478Z,8.25
2023-02-28T04:11:23.622Z,6.25
2023-02-28T04:13:50.785Z,7.93
2023-02-28T04:16:33.570Z,10.30
2023-02-28T04:19:06.258Z,8.70
2023-02-28T04:21:34.675Z,9.02
2023-02-28T04:24:03.624Z,11.00
2023-02-28T04:26:38.177Z,7.97
2023-02-28T04:29:06.447Z,9.02
2023-02-28T04:31:33.622Z,8.63
2023-02-28T04:34:01.057Z,11.07
2023-02-28T04:36:28.196Z,7.47
2023-02-28T04:38:55.757Z,11.02
2023-02-28T04:41:23.786Z,8.95
2023-02-28T04:43:50.955Z,9.25
2023-02-28T04:46:19.312Z,11.55
2023-02-28T04:48:46.557Z,9.70
2023-02-28T04:51:14.810Z,11.90
2023-02-28T04:53:42.631Z,11.13
2023-02-28T04:56:11.989Z,9.80
2023-02-28T04:58:39.063Z,11.80
2023-02-28T05:01:13.764Z,10.15
2023-02-28T05:03:43.953Z,11.85
2023-02-28T05:06:11.697Z,14.75
2023-02-28T05:08:39.087Z,11.13
2023-02-28T05:11:08.177Z,11.43
2023-02-28T05:13:36.714Z,11.40
2023-02-28T05:16:03.859Z,13.15
2023-02-28T05:18:30.973Z,9.48
2023-02-28T05:20:58.088Z,9.63
2023-02-28T05:23:25.302Z,12.27
2023-02-28T05:25:53.139Z,10.50
2023-02-28T05:28:20.252Z,12.85
2023-02-28T05:30:47.565Z,13.82
2023-02-28T05:33:15.008Z,13.82
2023-02-28T05:35:43.583Z,14.43
2023-02-28T05:38:10.818Z,12.45
2023-02-28T05:40:40.285Z,14.27
2023-02-28T05:43:07.388Z,12.68
2023-02-28T05:45:34.573Z,14.10
2023-02-28T05:48:01.705Z,12.10
2023-02-28T05:50:28.884Z,12.13
2023-02-28T05:52:56.038Z,14.18
2023-02-28T05:55:23.219Z,14.60
2023-02-28T05:57:50.315Z,9.38
2023-02-28T06:00:18.877Z,10.27
2023-02-28T06:02:46.389Z,11.15
2023-02-28T06:05:15.793Z,11.13
2023-02-28T06:07:43.019Z,11.60
2023-02-28T06:10:10.792Z,11.02
2023-02-28T06:12:38.237Z,11.63
2023-02-28T06:15:05.804Z,8.68
2023-02-28T06:17:32.931Z,10.30
2023-02-28T06:20:00.356Z,13.20
2023-02-28T06:22:27.600Z,12.30
2023-02-28T06:24:55.706Z,11.35
2023-02-28T06:27:23.110Z,14.55
2023-02-28T06:29:50.258Z,12.90
2023-02-28T06:32:17.429Z,12.85
2023-02-28T06:34:44.613Z,10.85
2023-02-28T06:37:11.770Z,13.32
2023-02-28T06:39:38.853Z,12.32
2023-02-28T06:42:05.967Z,13.43
2023-02-28T06:44:36.420Z,13.80
2023-02-28T06:47:04.913Z,11.27
2023-02-28T06:49:32.855Z,12.95
2023-02-28T06:52:00.022Z,11.60
2023-02-28T06:54:27.149Z,14.05
2023-02-28T06:56:55.261Z,13.02
2023-02-28T06:59:22.424Z,13.02
2023-02-28T07:01:49.581Z,12.20
2023-02-28T07:04:16.698Z,12.20
2023-02-28T07:06:43.902Z,12.82
2023-02-28T07:09:11.716Z,11.45
2023-02-28T07:11:38.887Z,13.70
2023-02-28T07:14:06.047Z,11.70
2023-02-28T07:16:33.153Z,12.02
2023-02-28T07:19:00.390Z,10.20
2023-02-28T07:21:27.815Z,11.00
2023-02-28T07:23:55.157Z,10.80
2023-02-28T07:26:22.296Z,11.50
2023-02-28T07:28:49.974Z,15.02
2023-02-28T07:31:18.120Z,9.82
2023-02-28T07:33:45.533Z,11.55
2023-02-28T07:36:16.187Z,11.88
2023-02-28T07:38:46.350Z,11.27
2023-02-28T07:41:15.295Z,11.77
2023-02-28T07:43:42.509Z,10.48
2023-02-28T07:46:11.408Z,11.60
2023-02-28T07:48:38.575Z,10.77
2023-02-28T07:51:05.920Z,13.38
2023-02-28T07:53:33.151Z,9.68
2023-02-28T07:56:01.772Z,12.82
2023-02-28T07:58:30.009Z,11.43
2023-02-28T08:00:57.903Z,10.27
2023-02-28T08:03:25.544Z,13.52
2023-02-28T08:05:53.702Z,12.75
2023-02-28T08:08:20.798Z,13.07
2023-02-28T08:10:47.948Z,12.07
2023-02-28T08:13:15.117Z,11.35
2023-02-28T08:15:43.869Z,11.02
2023-02-28T08:18:11.497Z,12.35
2023-02-28T08:20:38.859Z,12.80
2023-02-28T08:23:05.936Z,13.45
2023-02-28T08:25:33.048Z,12.00
2023-02-28T08:28:00.214Z,11.68
2023-02-28T08:30:27.294Z,11.77
2023-02-28T08:32:55.321Z,11.32
2023-02-28T08:35:22.702Z,10.45
2023-02-28T08:37:50.409Z,10.55
2023-02-28T08:40:19.836Z,9.10
2023-02-28T08:42:47.517Z,15.95
2023-02-28T08:45:15.472Z,13.32
2023-02-28T08:47:42.785Z,13.27
2023-02-28T08:50:10.226Z,14.02
2023-02-28T08:52:37.470Z,12.68
2023-02-28T08:55:04.658Z,11.65
2023-02-28T08:57:31.871Z,12.70
2023-02-28T08:59:58.960Z,12.20
2023-02-28T09:02:26.067Z,12.90
2023-02-28T09:04:53.229Z,15.50
2023-02-28T09:07:20.342Z,13.35
2023-02-28T09:09:56.503Z,13.02
2023-02-28T09:12:24.156Z,14.05
2023-02-28T09:14:51.613Z,11.90
2023-02-28T09:17:18.877Z,13.43
2023-02-28T09:19:46.172Z,13.48
2023-02-28T09:22:13.268Z,13.15
2023-02-28T09:27:12.675Z,15.55
2023-02-28T09:29:39.821Z,14.70
2023-02-28T09:32:07.176Z,15.05
2023-02-28T09:34:34.347Z,16.40
2023-02-28T09:37:01.593Z,14.63
2023-02-28T09:39:30.141Z,17.42
2023-02-28T09:41:57.759Z,13.20
2023-02-28T09:44:33.690Z,16.65
2023-02-28T09:47:27.361Z,15.15
2023-02-28T09:49:54.578Z,11.20
2023-02-28T09:52:25.059Z,13.18
2023-02-28T09:54:52.185Z,13.83
2023-02-28T09:57:25.278Z,18.02
2023-02-28T09:59:58.208Z,13.57
2023-02-28T10:02:28.324Z,14.63
2023-02-28T10:05:06.287Z,14.50
2023-02-28T10:07:51.664Z,14.45
2023-02-28T10:10:24.827Z,17.08
2023-02-28T10:12:54.514Z,15.32
2023-02-28T10:15:23.463Z,15.35
2023-02-28T10:18:00.762Z,11.93
2023-02-28T10:20:36.937Z,14.82
2023-02-28T10:23:17.753Z,16.23
2023-02-28T10:25:49.085Z,15.35
2023-02-28T10:30:45.385Z,14.98
2023-02-28T10:33:24.361Z,12.23
2023-02-28T10:35:52.211Z,13.10
2023-02-28T10:38:21.049Z,13.63
2023-02-28T10:40:48.328Z,11.55
2023-02-28T10:43:15.414Z,9.68
2023-02-28T10:46:01.475Z,11.73
2023-02-28T10:48:31.543Z,13.45
2023-02-28T10:50:59.799Z,13.40
2023-02-28T10:53:29.696Z,12.75
2023-02-28T10:56:08.504Z,10.68
2023-02-28T10:58:54.674Z,10.25
2023-02-28T11:01:24.060Z,11.85
2023-02-28T11:03:51.471Z,11.68
2023-02-28T11:06:32.802Z,11.80
2023-02-28T11:11:28.874Z,10.82
2023-02-28T11:13:57.500Z,10.70
2023-02-28T11:16:33.399Z,12.25
2023-02-28T11:19:01.030Z,12.95
2023-02-28T11:21:34.735Z,13.93
2023-02-28T11:24:17.006Z,11.20
2023-02-28T11:26:45.667Z,10.63
2023-02-28T11:29:23.985Z,12.30
2023-02-28T11:32:03.161Z,12.75
2023-02-28T11:34:30.548Z,13.38
2023-02-28T11:36:59.437Z,13.93
2023-02-28T11:39:27.457Z,13.10
2023-02-28T11:42:03.579Z,13.98
2023-02-28T11:44:39.610Z,13.05
2023-02-28T11:47:15.490Z,12.00
2023-02-28T11:50:00.642Z,15.80
2023-02-28T11:52:43.038Z,12.32
2023-02-28T11:55:28.846Z,14.65
2023-02-28T11:58:15.324Z,16.42
2023-02-28T12:01:01.264Z,15.25
2023-02-28T12:03:45.759Z,15.30
2023-02-28T12:06:25.517Z,12.77
2023-02-28T12:09:11.964Z,16.67
2023-02-28T12:11:45.304Z,14.32
2023-02-28T12:14:41.652Z,16.25
2023-02-28T12:17:21.511Z,14.98
2023-02-28T12:20:04.291Z,16.45
2023-02-28T12:22:31.515Z,12.90
2023-02-28T12:25:07.828Z,14.25
2023-02-28T12:27:38.005Z,13.18
2023-02-28T12:30:08.311Z,18.23
2023-02-28T12:32:37.121Z,16.38
2023-02-28T12:35:04.484Z,15.57
2023-02-28T12:37:36.162Z,18.27
2023-02-28T12:40:07.231Z,15.43
2023-02-28T12:42:36.896Z,14.65
2023-02-28T12:45:09.783Z,12.68
2023-02-28T12:47:38.629Z,12.77
2023-02-28T12:50:07.592Z,16.48
2023-02-28T12:52:42.475Z,13.60
2023-02-28T12:55:09.947Z,13.65
2023-02-28T12:57:43.287Z,13.73
2023-02-28T13:00:20.896Z,14.98
2023-02-28T13:02:49.246Z,13.02
2023-02-28T13:05:37.143Z,12.57
2023-02-28T13:08:25.715Z,17.30
2023-02-28T13:10:55.555Z,15.30
2023-02-28T13:13:24.271Z,14.02
2023-02-28T13:16:10.622Z,12.57
2023-02-28T13:18:40.679Z,14.63
2023-02-28T13:21:09.506Z,13.85
2023-02-28T13:24:00.257Z,14.82
2023-02-28T13:26:39.612Z,14.65
2023-02-28T13:29:09.659Z,14.15
2023-02-28T13:31:56.722Z,14.30
2023-02-28T13:34:23.949Z,16.63
2023-02-28T13:36:51.044Z,15.90
2023-02-28T13:39:36.623Z,15.48
2023-02-28T13:42:22.655Z,15.05
2023-02-28T13:45:05.166Z,14.25
2023-02-28T13:47:34.458Z,17.33
2023-02-28T13:50:17.863Z,15.00
2023-02-28T13:52:52.581Z,15.38
2023-02-28T13:55:26.360Z,14.07
2023-02-28T13:58:05.646Z,13.98
2023-02-28T14:00:37.320Z,14.57
2023-02-28T14:03:26.452Z,14.45
2023-02-28T14:06:12.181Z,15.13
2023-02-28T14:08:39.461Z,16.33
2023-02-28T14:11:08.347Z,15.18
2023-02-28T14:13:40.369Z,17.67
2023-02-28T14:16:08.373Z,14.23
2023-02-28T14:18:36.636Z,16.15
2023-02-28T14:21:13.381Z,18.27
2023-02-28T14:23:59.192Z,17.88
2023-02-28T14:26:29.572Z,13.48
2023-02-28T14:29:15.974Z,14.27
2023-02-28T14:31:47.493Z,13.93
2023-02-28T14:34:14.627Z,15.38
2023-02-28T14:36:43.515Z,15.02
2023-02-28T14:39:18.112Z,11.45
2023-02-28T14:41:46.212Z,15.02
2023-02-28T14:44:39.802Z,14.88
2023-02-28T14:47:15.909Z,13.57
2023-02-28T14:49:47.690Z,16.42
2023-02-28T14:52:17.323Z,16.88
2023-02-28T14:54:45.666Z,16.17
2023-02-28T14:57:30.233Z,17.10
2023-02-28T15:00:16.381Z,12.65
2023-02-28T15:02:44.300Z,14.77
2023-02-28T15:05:11.369Z,13.32
2023-02-28T15:07:38.516Z,18.20
2023-02-28T15:10:32.216Z,13.73
2023-02-28T15:12:59.273Z,12.63
2023-02-28T15:16:01.235Z,12.73
2023-02-28T15:18:41.374Z,12.35
2023-02-28T15:21:12.765Z,15.00
2023-02-28T15:26:07.504Z,16.45
2023-02-28T15:28:34.786Z,13.50
2023-02-28T15:31:03.382Z,13.68
2023-02-28T15:33:32.486Z,16.23
2023-02-28T15:36:17.020Z,16.42
2023-02-28T15:38:44.813Z,13.18
2023-02-28T15:41:23.700Z,17.05
2023-02-28T15:43:50.946Z,14.13
2023-02-28T15:46:18.178Z,13.90
2023-02-28T15:48:46.932Z,13.52
2023-02-28T15:51:13.987Z,14.30
2023-02-28T15:53:52.261Z,14.65
2023-02-28T15:56:24.960Z,15.70
2023-02-28T15:58:55.382Z,14.68
2023-02-28T16:01:26.334Z,16.07
2023-02-28T16:03:55.568Z,12.32
2023-02-28T16:06:45.434Z,13.43
2023-02-28T16:09:16.766Z,10.65
2023-02-28T16:14:15.345Z,15.82
2023-02-28T16:16:47.644Z,18.42
2023-02-28T16:19:14.888Z,15.38
2023-02-28T16:21:42.067Z,16.10
2023-02-28T16:24:09.359Z,16.58
2023-02-28T16:26:38.267Z,14.95
2023-02-28T16:29:05.524Z,14.80
2023-02-28T16:31:36.287Z,12.98
2023-02-28T16:34:03.392Z,13.05
2023-02-28T16:36:30.997Z,17.38
2023-02-28T16:38:58.329Z,13.60
2023-02-28T16:41:29.872Z,15.88
2023-02-28T16:44:00.984Z,16.02
2023-02-28T16:46:37.469Z,13.48
2023-02-28T16:49:04.759Z,19.70
2023-02-28T16:51:34.356Z,15.23
2023-02-28T16:54:02.785Z,19.35
2023-02-28T16:56:30.368Z,16.67
2023-02-28T16:58:59.419Z,17.77
2023-02-28T17:01:28.859Z,17.02
2023-02-28T17:03:56.490Z,18.13
2023-02-28T17:06:29.113Z,15.15
2023-02-28T17:08:57.219Z,16.25
2023-02-28T17:11:24.309Z,15.05
2023-02-28T17:13:51.508Z,17.77
2023-02-28T17:16:27.911Z,16.75
2023-02-28T17:18:56.781Z,16.35
2023-02-28T17:21:23.879Z,17.08
2023-02-28T17:23:51.567Z,17.20
2023-02-28T17:26:25.374Z,18.20
2023-02-28T17:28:56.867Z,16.77
2023-02-28T17:31:24.490Z,17.58
2023-02-28T17:33:51.593Z,16.73
2023-02-28T17:36:28.823Z,14.80
2023-02-28T17:38:56.388Z,17.23
2023-02-28T17:41:23.692Z,17.17
2023-02-28T17:43:51.616Z,21.60
2023-02-28T17:46:21.644Z,15.70
2023-02-28T17:48:50.549Z,16.40
2023-02-28T17:51:18.497Z,11.95
2023-02-28T17:53:45.942Z,16.85
2023-02-28T17:56:15.042Z,17.23
2023-02-28T17:58:42.339Z,15.43
2023-02-28T18:01:09.594Z,18.83
2023-02-28T18:03:36.756Z,16.80
2023-02-28T18:06:04.819Z,19.55
2023-02-28T18:08:32.120Z,14.55
2023-02-28T18:10:59.238Z,19.15
2023-02-28T18:13:28.720Z,18.13
2023-02-28T18:15:56.071Z,15.68
2023-02-28T18:18:23.203Z,19.75
2023-02-28T18:20:50.964Z,18.27
2023-02-28T18:23:19.133Z,20.33
2023-02-28T18:25:46.395Z,17.02
2023-02-28T18:28:14.060Z,15.15
2023-02-28T18:30:41.167Z,18.20
2023-02-28T18:33:08.241Z,19.55
2023-02-28T18:35:35.541Z,20.42
2023-02-28T18:38:03.437Z,16.65
2023-02-28T18:40:30.612Z,19.30
2023-02-28T18:42:57.803Z,18.13
2023-02-28T18:45:24.990Z,25.60
2023-02-28T18:47:52.238Z,16.35
2023-02-28T18:50:19.518Z,16.45
2023-02-28T18:52:46.659Z,20.35
2023-02-28T18:55:18.645Z,13.30
2023-02-28T18:57:48.913Z,18.80
2023-02-28T19:00:22.414Z,20.17
2023-02-28T19:02:50.765Z,19.25
2023-02-28T19:05:18.353Z,21.27
2023-02-28T19:07:45.640Z,16.63
2023-02-28T19:10:13.585Z,17.17
2023-02-28T19:12:42.830Z,16.27
2023-02-28T19:15:11.152Z,15.13
2023-02-28T19:17:38.504Z,18.45
2023-02-28T19:20:06.448Z,21.77
2023-02-28T19:22:33.770Z,15.82
2023-02-28T19:25:01.471Z,14.13
2023-02-28T19:27:28.556Z,21.17
2023-02-28T19:29:59.067Z,18.15
2023-02-28T19:32:26.747Z,19.58
2023-02-28T19:34:53.950Z,17.08
2023-02-28T19:37:21.032Z,15.32
2023-02-28T19:39:48.194Z,16.48
2023-02-28T19:42:16.686Z,18.10
2023-02-28T19:44:45.037Z,19.30
2023-02-28T19:47:13.267Z,18.40
2023-02-28T19:49:40.482Z,18.42
2023-02-28T19:52:10.404Z,15.98
2023-02-28T19:54:40.655Z,17.73
2023-02-28T19:57:07.808Z,16.05
2023-02-28T19:59:39.240Z,18.10
2023-02-28T20:02:17.476Z,15.80
2023-02-28T20:04:48.630Z,17.25
2023-02-28T20:07:16.188Z,13.68
2023-02-28T20:09:44.852Z,13.20
2023-02-28T20:12:23.566Z,14.23
2023-02-28T20:14:51.284Z,15.50
2023-02-28T20:17:18.502Z,15.68
2023-02-28T20:19:46.058Z,16.55
2023-02-28T20:22:13.267Z,16.42
2023-02-28T20:24:40.398Z,15.27
2023-02-28T20:27:07.511Z,14.65
2023-02-28T20:29:35.307Z,17.25
2023-02-28T20:32:02.927Z,12.30
2023-02-28T20:34:30.036Z,13.85
2023-02-28T20:36:58.805Z,17.25
2023-02-28T20:39:26.104Z,13.07
2023-02-28T20:41:53.271Z,14.02
2023-02-28T20:44:20.487Z,14.18
2023-02-28T20:46:47.584Z,15.65
2023-02-28T20:49:15.769Z,19.05
2023-02-28T20:51:42.957Z,14.60
2023-02-28T20:54:13.926Z,15.10
2023-02-28T20:56:41.088Z,15.07
2023-02-28T20:59:10.317Z,17.00
2023-02-28T21:01:37.435Z,20.48
2023-02-28T21:04:06.071Z,18.83
2023-02-28T21:06:37.973Z,16.23
2023-02-28T21:09:09.200Z,17.23
2023-02-28T21:11:37.636Z,21.23
2023-02-28T21:14:09.750Z,17.40
2023-02-28T21:16:38.082Z,16.70
2023-02-28T21:19:05.474Z,14.98
2023-02-28T21:21:38.402Z,18.02
2023-02-28T21:24:05.965Z,16.40
2023-02-28T21:26:33.496Z,17.05
2023-02-28T21:29:01.928Z,16.42
2023-02-28T21:31:31.274Z,13.52
2023-02-28T21:33:59.121Z,16.35
2023-02-28T21:36:29.513Z,17.35
2023-02-28T21:38:57.741Z,16.70
2023-02-28T21:41:25.519Z,19.38
2023-02-28T21:43:53.479Z,20.77
2023-02-28T21:46:21.736Z,20.50
2023-02-28T21:48:49.365Z,22.42
2023-02-28T21:51:17.608Z,17.38
2023-02-28T21:53:44.976Z,19.98
2023-02-28T21:56:14.290Z,18.90
2023-02-28T21:58:41.715Z,18.08
2023-02-28T22:01:10.781Z,19.90
2023-02-28T22:03:37.953Z,20.60
2023-02-28T22:06:15.508Z,20.02
2023-02-28T22:08:43.163Z,18.58
2023-02-28T22:11:10.464Z,19.17
2023-02-28T22:13:38.281Z,19.27
2023-02-28T22:16:06.709Z,18.90
2023-02-28T22:18:37.520Z,22.40
2023-02-28T22:21:05.552Z,22.98
2023-02-28T22:23:33.220Z,19.95
2023-02-28T22:26:04.323Z,18.50
2023-02-28T22:28:31.678Z,17.88
2023-02-28T22:30:59.626Z,23.30
2023-02-28T22:33:27.300Z,24.23
2023-02-28T22:35:55.159Z,23.02
2023-02-28T22:38:22.808Z,21.15
2023-02-28T22:40:49.981Z,20.17
2023-02-28T22:43:17.263Z,18.88
2023-02-28T22:45:44.356Z,25.75
2023-02-28T22:48:11.483Z,23.40
2023-02-28T22:50:38.671Z,21.88
2023-02-28T22:53:05.859Z,23.40
2023-02-28T22:55:32.971Z,21.48
2023-02-28T22:58:00.165Z,25.02
2023-02-28T23:00:27.981Z,19.50
2023-02-28T23:02:55.065Z,14.32
2023-02-28T23:05:22.640Z,16.60
2023-02-28T23:07:49.836Z,16.63
2023-02-28T23:10:18.291Z,19.23
2023-02-28T23:12:51.410Z,22.05
2023-02-28T23:15:19.104Z,16.92
2023-02-28T23:17:46.595Z,18.65
2023-02-28T23:20:14.768Z,17.17
2023-02-28T23:22:46.465Z,18.95
2023-02-28T23:25:15.268Z,18.67
2023-02-28T23:27:42.361Z,14.82
2023-02-28T23:30:10.790Z,21.50
2023-02-28T23:32:38.367Z,18.33
2023-02-28T23:35:07.894Z,16.67
2023-02-28T23:37:35.525Z,21.70
2023-02-28T23:40:03.481Z,19.67
2023-02-28T23:42:30.548Z,14.35
2023-02-28T23:44:57.687Z,17.23
2023-02-28T23:47:25.059Z,17.17
2023-02-28T23:49:52.148Z,17.65
2023-02-28T23:52:19.506Z,19.75
2023-02-28T23:54:46.929Z,18.65
2023-02-28T23:57:14.189Z,18.55
2023-02-28T23:59:41.269Z,15.43
